Terminal Aerodrome Forecast
Issued by NWS

Home | Current Version | Previous Version | Text Only | Print | Product List | Glossary On
Versions: 1 2 3 4 5 6 7 8 9 10 11 12 13 14 15 16 17 18 19 20
000
FTUS43 KSGF 251600 AAA
TAFJLN
TAF AMD
KJLN 251608Z 2516/2612 18023G35KT P6SM FEW250
     FM252100 18020G30KT P6SM SCT250
     FM252300 18019G27KT P6SM SCT250 WS020/20050KT=

USA.gov is the U.S. government's official web portal to all federal, state and local government web resources and services.